createdAt,value
2019-04-21T00:01:51.085Z,39.43
2019-04-21T00:04:34.627Z,38.22
2019-04-21T00:07:10.141Z,38.50
2019-04-21T00:09:48.611Z,38.07
2019-04-21T00:12:15.459Z,38.02
2019-04-21T00:14:35.807Z,38.05
2019-04-21T00:16:58.027Z,38.08
2019-04-21T00:19:32.249Z,38.31
2019-04-21T00:22:08.648Z,38.39
2019-04-21T00:24:44.728Z,38.23
2019-04-21T00:27:15.596Z,38.81
2019-04-21T00:29:49.757Z,38.55
2019-04-21T00:32:16.719Z,38.58
2019-04-21T00:34:31.910Z,38.33
2019-04-21T00:37:12.092Z,38.91
2019-04-21T00:42:18.211Z,38.27
2019-04-21T00:44:44.309Z,39.02
2019-04-21T00:47:26.653Z,38.14
2019-04-21T00:49:56.626Z,38.42
2019-04-21T00:55:33.900Z,38.34
2019-04-21T00:57:53.419Z,38.47
2019-04-21T01:00:18.715Z,38.55
2019-04-21T01:02:51.126Z,39.03
2019-04-21T01:05:16.682Z,39.33
2019-04-21T01:07:59.432Z,38.57
2019-04-21T01:10:05.299Z,38.36
2019-04-21T01:12:49.013Z,39.37
2019-04-21T01:15:24.783Z,39.82
2019-04-21T01:17:46.265Z,39.20
2019-04-21T01:20:07.911Z,38.94
2019-04-21T01:22:25.051Z,39.00
2019-04-21T01:25:05.810Z,39.46
2019-04-21T01:27:48.478Z,39.16
2019-04-21T01:30:16.315Z,39.35
2019-04-21T01:32:48.180Z,40.09
2019-04-21T01:35:15.084Z,39.87
2019-04-21T01:37:49.684Z,39.70
2019-04-21T01:40:22.631Z,39.44
2019-04-21T01:42:45.911Z,40.17
2019-04-21T01:45:18.882Z,39.39
2019-04-21T01:47:43.930Z,39.60
2019-04-21T01:50:05.741Z,40.33
2019-04-21T01:52:56.048Z,41.20
2019-04-21T01:55:20.768Z,40.35
2019-04-21T01:57:49.484Z,39.92
2019-04-21T02:00:13.326Z,40.43
2019-04-21T02:02:59.223Z,40.33
2019-04-21T02:05:32.971Z,40.55
2019-04-21T02:07:55.224Z,40.11
2019-04-21T02:10:34.681Z,40.83
2019-04-21T02:12:59.730Z,40.53
2019-04-21T02:15:31.132Z,40.01
2019-04-21T02:17:59.470Z,39.93
2019-04-21T02:20:21.816Z,39.93
2019-04-21T02:25:31.702Z,40.93
2019-04-21T02:28:03.325Z,40.39
2019-04-21T02:31:04.895Z,40.86
2019-04-21T02:33:19.508Z,41.05
2019-04-21T02:35:50.790Z,42.20
2019-04-21T02:50:46.943Z,42.08
2019-04-21T02:53:21.055Z,41.55
2019-04-21T02:55:43.712Z,42.25
2019-04-21T03:01:12.511Z,42.24
2019-04-21T03:03:51.401Z,41.55
2019-04-21T03:06:16.820Z,42.08
2019-04-21T03:08:51.557Z,42.54
2019-04-21T03:11:14.905Z,41.75
2019-04-21T03:13:47.213Z,43.14
2019-04-21T03:16:26.360Z,42.36
2019-04-21T03:21:26.308Z,42.47
2019-04-21T03:28:56.291Z,42.61
2019-04-21T03:31:39.306Z,44.49
2019-04-21T03:34:28.904Z,43.37
2019-04-21T03:36:43.577Z,43.77
2019-04-21T03:38:47.381Z,45.13
2019-04-21T03:41:26.849Z,44.67
2019-04-21T03:43:50.633Z,43.64
2019-04-21T03:46:24.215Z,44.50
2019-04-21T03:48:53.966Z,43.45
2019-04-21T03:51:20.303Z,43.91
2019-04-21T03:53:48.019Z,43.58
2019-04-21T03:56:27.240Z,43.37
2019-04-21T03:59:09.939Z,43.85
2019-04-21T04:01:16.593Z,44.20
2019-04-21T04:04:28.359Z,43.64
2019-04-21T04:16:58.538Z,44.04
2019-04-21T04:19:22.866Z,46.70
2019-04-21T04:21:56.410Z,44.63
2019-04-21T04:26:57.771Z,45.08
2019-04-21T04:29:19.203Z,44.75
2019-04-21T04:31:43.561Z,47.23
2019-04-21T04:34:21.749Z,44.77
2019-04-21T04:39:36.222Z,45.38
2019-04-21T04:42:06.762Z,44.76
2019-04-21T04:47:04.746Z,44.93
2019-04-21T04:49:40.146Z,45.43
2019-04-21T04:54:39.043Z,46.26
2019-04-21T04:57:08.259Z,45.49
2019-04-21T05:04:40.253Z,45.66
2019-04-21T05:07:00.050Z,45.63
2019-04-21T05:11:55.284Z,46.02
2019-04-21T05:17:07.110Z,47.31
2019-04-21T05:19:32.239Z,46.77
2019-04-21T05:21:57.133Z,45.69
2019-04-21T05:24:17.828Z,45.47
2019-04-21T05:26:48.041Z,45.92
2019-04-21T05:29:15.803Z,46.37
2019-04-21T05:31:56.951Z,45.24
2019-04-21T05:34:27.615Z,45.53
2019-04-21T05:37:07.475Z,44.87
2019-04-21T05:39:51.197Z,45.38
2019-04-21T05:42:10.504Z,44.89
2019-04-21T05:44:58.303Z,44.91
2019-04-21T05:47:34.900Z,44.65
2019-04-21T05:49:55.959Z,43.77
2019-04-21T05:52:23.173Z,43.80
2019-04-21T05:55:01.283Z,43.50
2019-04-21T05:57:32.248Z,43.21
2019-04-21T06:00:06.648Z,42.98
2019-04-21T06:02:31.580Z,42.71
2019-04-21T06:09:59.593Z,42.22
2019-04-21T06:12:36.104Z,42.00
2019-04-21T06:15:03.744Z,41.57
2019-04-21T06:17:34.860Z,41.54
2019-04-21T06:20:02.860Z,41.12
2019-04-21T06:22:33.151Z,41.08
2019-04-21T06:27:32.497Z,40.55
2019-04-21T06:30:22.374Z,40.27
2019-04-21T06:35:12.715Z,40.18
2019-04-21T06:37:43.278Z,40.20
2019-04-21T06:42:40.307Z,39.21
2019-04-21T06:45:27.610Z,38.85
2019-04-21T06:47:47.222Z,38.70
2019-04-21T06:50:11.999Z,37.31
2019-04-21T06:55:15.324Z,38.05
2019-04-21T06:57:39.585Z,36.32
2019-04-21T07:00:07.459Z,36.26
2019-04-21T07:03:01.177Z,36.87
2019-04-21T07:05:07.842Z,37.84
2019-04-21T07:07:43.633Z,36.54
2019-04-21T07:10:12.361Z,36.89
2019-04-21T07:12:39.338Z,36.83
2019-04-21T07:15:11.323Z,36.84
2019-04-21T07:17:38.878Z,35.35
2019-04-21T07:20:12.176Z,36.32
2019-04-21T07:22:44.176Z,35.70
2019-04-21T07:25:15.392Z,34.68
2019-04-21T07:27:43.423Z,34.25
2019-04-21T07:30:14.959Z,33.96
2019-04-21T07:32:45.702Z,35.06
2019-04-21T07:35:17.166Z,33.41
2019-04-21T07:37:41.337Z,34.04
2019-04-21T07:40:05.433Z,33.76
2019-04-21T07:42:41.187Z,33.49
2019-04-21T07:45:05.257Z,34.63
2019-04-21T07:47:46.342Z,33.69
2019-04-21T07:50:24.798Z,33.79
2019-04-21T07:52:55.361Z,34.69
2019-04-21T07:57:45.716Z,33.25
2019-04-21T08:02:49.335Z,34.21
2019-04-21T08:05:28.051Z,33.59
2019-04-21T08:07:54.215Z,32.34
2019-04-21T08:10:23.022Z,30.13
2019-04-21T08:12:49.421Z,31.26
2019-04-21T08:18:09.227Z,27.58
2019-04-21T08:20:18.885Z,29.29
2019-04-21T08:22:55.156Z,27.20
2019-04-21T08:25:21.868Z,25.00
2019-04-21T08:27:57.006Z,26.93
2019-04-21T08:30:27.469Z,26.05
2019-04-21T08:33:02.530Z,24.90
2019-04-21T08:37:59.114Z,26.27
2019-04-21T08:40:32.720Z,23.97
2019-04-21T08:42:55.049Z,23.38
2019-04-21T08:45:30.829Z,23.56
2019-04-21T08:48:02.737Z,22.46
2019-04-21T08:50:25.483Z,23.28
2019-04-21T08:53:04.166Z,21.90
2019-04-21T08:55:41.970Z,21.22
2019-04-21T08:58:27.731Z,21.59
2019-04-21T09:00:48.912Z,21.75
2019-04-21T09:03:24.235Z,21.02
2019-04-21T09:05:49.388Z,18.62
2019-04-21T09:08:19.548Z,20.22
2019-04-21T09:10:47.231Z,21.90
2019-04-21T09:13:17.189Z,20.49
2019-04-21T09:15:47.429Z,19.33
2019-04-21T09:18:13.373Z,19.37
2019-04-21T09:20:52.137Z,19.26
2019-04-21T09:23:19.383Z,19.08
2019-04-21T09:25:52.997Z,18.11
2019-04-21T09:28:18.482Z,18.75
2019-04-21T09:30:40.511Z,17.77
2019-04-21T09:33:02.402Z,18.31
2019-04-21T09:35:31.588Z,17.84
2019-04-21T09:38:12.675Z,17.79
2019-04-21T09:40:37.216Z,19.90
2019-04-21T09:43:04.807Z,19.06
2019-04-21T09:45:30.816Z,18.74
2019-04-21T09:48:06.378Z,18.01
2019-04-21T09:50:29.610Z,17.31
2019-04-21T09:53:05.442Z,17.76
2019-04-21T09:55:39.127Z,16.95
2019-04-21T09:58:12.722Z,17.98
2019-04-21T10:00:37.935Z,16.77
2019-04-21T10:03:05.832Z,17.24
2019-04-21T10:05:29.766Z,16.77
2019-04-21T10:07:59.829Z,18.01
2019-04-21T10:10:29.636Z,17.55
2019-04-21T10:12:58.296Z,16.04
2019-04-21T10:15:28.296Z,16.70
2019-04-21T10:17:58.597Z,16.79
2019-04-21T10:20:27.077Z,16.08
2019-04-21T10:22:55.534Z,15.78
2019-04-21T10:25:25.065Z,16.31
2019-04-21T10:27:54.834Z,16.60
2019-04-21T10:30:24.618Z,15.79
2019-04-21T10:32:54.313Z,15.94
2019-04-21T10:35:24.381Z,15.48
2019-04-21T10:38:05.768Z,15.97
2019-04-21T10:40:25.463Z,15.41
2019-04-21T10:42:54.246Z,16.07
2019-04-21T10:45:23.123Z,16.16
2019-04-21T10:47:52.800Z,17.08
2019-04-21T10:50:22.623Z,16.77
2019-04-21T10:53:04.980Z,17.31
2019-04-21T10:55:48.563Z,16.57
2019-04-21T10:58:24.444Z,17.10
2019-04-21T11:00:55.682Z,18.02
2019-04-21T11:03:38.337Z,18.32
2019-04-21T11:06:08.672Z,18.09
2019-04-21T11:08:42.975Z,19.81
2019-04-21T11:11:07.996Z,18.81
2019-04-21T11:13:37.022Z,20.12
2019-04-21T11:16:05.767Z,20.78
2019-04-21T11:18:34.235Z,19.67
2019-04-21T11:21:03.022Z,20.33
2019-04-21T11:23:33.099Z,21.99
2019-04-21T11:26:02.266Z,22.81
2019-04-21T11:28:31.148Z,21.33
2019-04-21T11:31:00.560Z,22.32
2019-04-21T11:33:29.188Z,22.16
2019-04-21T11:35:57.650Z,23.37
2019-04-21T11:38:30.445Z,23.57
2019-04-21T11:40:58.169Z,24.16
2019-04-21T11:43:26.740Z,23.09
2019-04-21T11:45:55.529Z,23.57
2019-04-21T11:48:28.393Z,22.89
2019-04-21T11:50:57.493Z,23.26
2019-04-21T11:53:26.239Z,23.56
2019-04-21T11:55:55.536Z,23.78
2019-04-21T11:58:26.202Z,23.38
2019-04-21T12:01:03.465Z,23.14
2019-04-21T12:03:33.517Z,23.52
2019-04-21T12:06:03.575Z,23.18
2019-04-21T12:08:40.173Z,23.60
2019-04-21T12:11:03.225Z,23.51
2019-04-21T12:13:32.255Z,23.56
2019-04-21T12:16:01.109Z,24.14
2019-04-21T12:18:30.479Z,24.21
2019-04-21T12:21:01.125Z,24.12
2019-04-21T12:23:30.179Z,24.25
2019-04-21T12:25:59.158Z,24.13
2019-04-21T12:28:28.107Z,24.22
2019-04-21T12:30:57.900Z,23.95
2019-04-21T12:33:32.092Z,24.32
2019-04-21T12:36:01.922Z,24.43
2019-04-21T12:38:40.964Z,24.84
2019-04-21T12:41:00.852Z,24.94
2019-04-21T12:43:30.588Z,25.17
2019-04-21T12:46:00.059Z,24.82
2019-04-21T12:48:29.634Z,24.73
2019-04-21T12:50:59.698Z,24.52
2019-04-21T12:53:29.595Z,26.17
2019-04-21T12:55:58.225Z,25.30
2019-04-21T12:58:26.680Z,25.51
2019-04-21T13:00:56.667Z,24.84
2019-04-21T13:03:26.813Z,25.42
2019-04-21T13:05:55.896Z,25.53
2019-04-21T13:08:25.007Z,25.02
2019-04-21T13:10:55.971Z,24.93
2019-04-21T13:13:26.010Z,24.95
2019-04-21T13:15:55.758Z,24.68
2019-04-21T13:18:24.401Z,25.46
2019-04-21T13:20:54.018Z,25.11
2019-04-21T13:23:23.112Z,24.75
2019-04-21T13:25:51.977Z,25.58
2019-04-21T13:28:20.831Z,25.28
2019-04-21T13:30:50.675Z,25.03
2019-04-21T13:33:21.013Z,25.10
2019-04-21T13:35:50.937Z,25.04
2019-04-21T13:38:29.043Z,25.94
2019-04-21T13:41:14.959Z,25.54
2019-04-21T13:43:29.322Z,25.15
2019-04-21T13:45:59.499Z,25.06
2019-04-21T13:48:28.620Z,25.22
2019-04-21T13:50:57.449Z,25.21
2019-04-21T13:53:26.846Z,26.29
2019-04-21T13:55:56.463Z,25.33
2019-04-21T13:58:26.323Z,25.28
2019-04-21T14:00:56.089Z,25.66
2019-04-21T14:03:26.650Z,26.14
2019-04-21T14:05:56.189Z,26.12
2019-04-21T14:08:25.339Z,26.07
2019-04-21T14:10:54.266Z,26.94
2019-04-21T14:13:24.614Z,26.21
2019-04-21T14:15:53.871Z,26.27
2019-04-21T14:18:22.716Z,26.30
2019-04-21T14:20:51.413Z,26.53
2019-04-21T14:23:29.948Z,26.66
2019-04-21T14:25:50.274Z,26.45
2019-04-21T14:28:19.961Z,26.61
2019-04-21T14:30:48.648Z,26.60
2019-04-21T14:33:18.312Z,27.30
2019-04-21T14:35:47.176Z,27.12
2019-04-21T14:38:16.547Z,27.27
2019-04-21T14:40:46.149Z,26.89
2019-04-21T14:43:16.316Z,27.13
2019-04-21T14:45:50.494Z,27.20
2019-04-21T14:48:37.088Z,27.36
2019-04-21T14:51:07.266Z,27.16
2019-04-21T14:53:56.322Z,27.35
2019-04-21T14:56:25.397Z,27.20
2019-04-21T14:58:57.306Z,27.42
2019-04-21T15:01:26.141Z,27.16
2019-04-21T15:03:55.450Z,27.00
2019-04-21T15:06:25.342Z,27.16
2019-04-21T15:08:55.410Z,27.16
2019-04-21T15:11:24.252Z,27.48
2019-04-21T15:13:53.641Z,27.38
2019-04-21T15:16:22.868Z,27.30
2019-04-21T15:18:52.698Z,27.07
2019-04-21T15:21:25.691Z,27.34
2019-04-21T15:23:54.364Z,27.24
2019-04-21T15:26:24.157Z,26.97
2019-04-21T15:28:52.924Z,27.56
2019-04-21T15:31:28.720Z,27.45
2019-04-21T15:33:52.849Z,27.20
2019-04-21T15:36:22.807Z,27.42
2019-04-21T15:38:51.995Z,27.76
2019-04-21T15:41:20.782Z,27.45
2019-04-21T15:43:49.263Z,27.13
2019-04-21T15:46:18.496Z,27.19
2019-04-21T15:48:47.091Z,27.14
2019-04-21T15:51:15.902Z,27.30
2019-04-21T15:53:46.012Z,26.91
2019-04-21T15:56:20.564Z,27.16
2019-04-21T15:59:04.229Z,27.19
2019-04-21T16:01:38.722Z,27.10
2019-04-21T16:04:08.014Z,27.09
2019-04-21T16:06:37.352Z,27.11
2019-04-21T16:09:14.216Z,27.56
2019-04-21T16:11:39.837Z,27.14
2019-04-21T16:14:10.008Z,27.23
2019-04-21T16:16:39.241Z,27.24
2019-04-21T16:19:08.166Z,27.18
2019-04-21T16:21:40.594Z,27.35
2019-04-21T16:24:07.069Z,27.16
2019-04-21T16:26:35.595Z,27.41
2019-04-21T16:29:05.037Z,27.15
2019-04-21T16:31:34.293Z,27.19
2019-04-21T16:34:03.245Z,27.49
2019-04-21T16:36:31.982Z,27.39
2019-04-21T16:39:01.843Z,27.27
2019-04-21T16:41:32.089Z,27.41
2019-04-21T16:44:00.958Z,27.66
2019-04-21T16:46:29.764Z,27.46
2019-04-21T16:48:58.247Z,27.91
2019-04-21T16:51:26.794Z,27.64
2019-04-21T16:53:57.796Z,27.70
2019-04-21T16:56:43.848Z,27.64
2019-04-21T16:59:16.822Z,27.64
2019-04-21T17:01:48.898Z,27.57
2019-04-21T17:04:18.336Z,27.63
2019-04-21T17:06:47.184Z,27.62
2019-04-21T17:09:16.764Z,27.69
2019-04-21T17:11:46.948Z,28.10
2019-04-21T17:14:32.366Z,28.12
2019-04-21T17:17:16.123Z,28.38
2019-04-21T17:19:24.142Z,28.89
2019-04-21T17:21:47.941Z,28.29
2019-04-21T17:24:16.781Z,28.08
2019-04-21T17:26:46.492Z,27.96
2019-04-21T17:29:16.830Z,27.91
2019-04-21T17:31:47.620Z,28.07
2019-04-21T17:34:21.621Z,27.94
2019-04-21T17:36:47.286Z,28.84
2019-04-21T17:39:18.564Z,27.92
2019-04-21T17:42:04.087Z,28.12
2019-04-21T17:44:17.459Z,27.87
2019-04-21T17:46:53.832Z,28.00
2019-04-21T17:49:16.978Z,27.77
2019-04-21T17:52:06.377Z,27.95
2019-04-21T17:54:44.803Z,27.91
2019-04-21T17:57:31.690Z,27.99
2019-04-21T18:00:09.771Z,27.98
2019-04-21T18:02:36.929Z,28.09
2019-04-21T18:05:10.645Z,28.42
2019-04-21T18:07:34.989Z,28.11
2019-04-21T18:10:07.771Z,28.05
2019-04-21T18:12:36.241Z,28.14
2019-04-21T18:15:02.511Z,28.64
2019-04-21T18:17:22.821Z,28.32
2019-04-21T18:19:53.613Z,28.29
2019-04-21T18:25:25.410Z,28.61
2019-04-21T18:27:42.698Z,28.48
2019-04-21T18:30:38.134Z,28.39
2019-04-21T18:33:15.634Z,28.62
2019-04-21T18:36:00.056Z,28.72
2019-04-21T18:39:06.831Z,29.38
2019-04-21T18:41:34.701Z,28.71
2019-04-21T18:44:44.422Z,28.70
2019-04-21T18:47:12.170Z,28.87
2019-04-21T18:49:19.311Z,29.03
2019-04-21T18:52:06.795Z,28.87
2019-04-21T18:54:53.317Z,29.33
2019-04-21T18:57:10.605Z,28.99
2019-04-21T18:59:37.263Z,29.30
2019-04-21T19:02:07.936Z,29.10
2019-04-21T19:04:36.833Z,29.37
2019-04-21T19:07:18.277Z,30.34
2019-04-21T19:10:12.650Z,29.40
2019-04-21T19:12:35.137Z,29.57
2019-04-21T19:14:53.935Z,29.88
2019-04-21T19:20:04.701Z,29.91
2019-04-21T19:22:20.374Z,30.11
2019-04-21T19:24:57.226Z,30.95
2019-04-21T19:27:38.336Z,30.53
2019-04-21T19:30:13.511Z,30.94
2019-04-21T19:32:25.378Z,30.96
2019-04-21T19:34:40.891Z,31.24
2019-04-21T19:37:14.418Z,31.17
2019-04-21T19:39:50.789Z,31.26
2019-04-21T19:42:16.939Z,31.21
2019-04-21T19:44:52.143Z,31.30
2019-04-21T19:47:28.239Z,31.44
2019-04-21T19:50:00.343Z,32.09
2019-04-21T19:52:20.388Z,31.82
2019-04-21T19:54:44.482Z,32.01
2019-04-21T19:57:09.132Z,31.72
2019-04-21T19:59:44.771Z,32.64
2019-04-21T20:02:09.005Z,32.65
2019-04-21T20:04:43.887Z,32.14
2019-04-21T20:07:23.278Z,32.12
2019-04-21T20:09:55.806Z,32.28
2019-04-21T20:12:34.299Z,32.24
2019-04-21T20:14:59.360Z,32.69
2019-04-21T20:17:24.752Z,32.69
2019-04-21T20:19:40.204Z,32.90
2019-04-21T20:22:09.401Z,32.64
2019-04-21T20:24:39.704Z,32.71
2019-04-21T20:27:15.878Z,32.77
2019-04-21T20:29:57.528Z,33.47
2019-04-21T20:32:36.647Z,33.31
2019-04-21T20:35:02.766Z,33.10
2019-04-21T20:37:26.425Z,33.48
2019-04-21T20:39:47.311Z,33.91
2019-04-21T20:42:21.001Z,33.42
2019-04-21T20:45:16.151Z,33.83
2019-04-21T20:47:19.755Z,33.59
2019-04-21T20:49:52.331Z,33.97
2019-04-21T20:52:33.337Z,34.27
2019-04-21T20:54:56.776Z,34.07
2019-04-21T20:57:27.380Z,33.92
2019-04-21T20:59:57.903Z,34.05
2019-04-21T21:02:28.422Z,35.01
2019-04-21T21:04:51.362Z,34.67
2019-04-21T21:07:39.992Z,34.64
2019-04-21T21:10:00.116Z,34.23
2019-04-21T21:12:40.727Z,33.93
2019-04-21T21:14:54.080Z,33.95
2019-04-21T21:20:03.374Z,34.34
2019-04-21T21:22:29.363Z,34.11
2019-04-21T21:24:55.838Z,33.65
2019-04-21T21:27:30.872Z,33.91
2019-04-21T21:30:04.797Z,34.73
2019-04-21T21:32:33.967Z,34.21
2019-04-21T21:35:03.555Z,34.16
2019-04-21T21:37:49.000Z,34.11
2019-04-21T21:40:07.199Z,33.79
2019-04-21T21:42:25.351Z,33.50
2019-04-21T21:44:49.491Z,34.14
2019-04-21T21:47:31.891Z,33.64
2019-04-21T21:49:58.160Z,34.31
2019-04-21T21:52:24.487Z,33.59
2019-04-21T21:54:47.299Z,33.58
2019-04-21T21:57:16.515Z,33.67
2019-04-21T21:59:45.398Z,33.42
2019-04-21T22:02:21.721Z,33.84
2019-04-21T22:04:54.672Z,33.53
2019-04-21T22:07:17.795Z,33.66
2019-04-21T22:09:46.365Z,33.26
2019-04-21T22:12:16.093Z,34.05
2019-04-21T22:14:48.665Z,33.87
2019-04-21T22:17:33.269Z,33.70
2019-04-21T22:20:22.612Z,33.42
2019-04-21T22:22:29.566Z,33.82
2019-04-21T22:24:55.702Z,33.82
2019-04-21T22:27:16.873Z,33.83
2019-04-21T22:29:49.815Z,33.87
2019-04-21T22:32:22.908Z,34.37
2019-04-21T22:34:51.437Z,34.03
2019-04-21T22:37:32.922Z,34.41
2019-04-21T22:40:02.234Z,34.68
2019-04-21T22:42:23.481Z,34.14
2019-04-21T22:44:48.099Z,34.06
2019-04-21T22:47:23.704Z,34.25
2019-04-21T22:49:48.492Z,34.07
2019-04-21T22:52:21.023Z,34.26
2019-04-21T22:54:49.394Z,35.07
2019-04-21T22:57:21.662Z,34.39
2019-04-21T22:59:54.809Z,34.46
2019-04-21T23:02:25.978Z,34.32
2019-04-21T23:04:53.280Z,34.38
2019-04-21T23:07:21.073Z,35.33
2019-04-21T23:09:49.499Z,34.98
2019-04-21T23:12:20.488Z,34.62
2019-04-21T23:14:57.324Z,35.57
2019-04-21T23:17:37.837Z,34.23
2019-04-21T23:20:14.514Z,35.48
2019-04-21T23:22:40.284Z,34.96
2019-04-21T23:25:07.682Z,35.62
2019-04-21T23:27:34.396Z,34.80
2019-04-21T23:30:13.681Z,35.25
2019-04-21T23:32:35.157Z,36.02
2019-04-21T23:34:51.093Z,36.13
2019-04-21T23:37:24.123Z,35.49
2019-04-21T23:39:52.207Z,35.30
2019-04-21T23:42:29.069Z,35.02
2019-04-21T23:44:55.171Z,35.63
2019-04-21T23:47:37.362Z,35.23
2019-04-21T23:50:00.251Z,35.40
2019-04-21T23:52:21.878Z,35.21
2019-04-21T23:54:51.579Z,35.41
2019-04-21T23:57:29.797Z,35.66
2019-04-21T23:59:54.156Z,35.76
